createdAt,value
2022-09-23T00:00:01.296Z,100.0
2022-09-23T00:01:03.612Z,100.0
2022-09-23T00:02:01.333Z,99.6
2022-09-23T00:03:01.422Z,97.9
2022-09-23T00:04:01.027Z,97.4
2022-09-23T00:05:01.213Z,96.5
2022-09-23T00:06:03.839Z,99.0
2022-09-23T00:07:01.205Z,100.0
2022-09-23T00:08:01.497Z,100.0
2022-09-23T00:09:01.319Z,100.0
2022-09-23T00:10:01.230Z,100.0
2022-09-23T00:11:04.493Z,100.0
2022-09-23T00:12:03.716Z,100.0
2022-09-23T00:13:01.218Z,100.0
2022-09-23T00:14:01.269Z,100.0
2022-09-23T00:15:01.252Z,100.0
2022-09-23T00:16:03.175Z,100.0
2022-09-23T00:17:01.334Z,100.0
2022-09-23T00:18:01.261Z,100.0
2022-09-23T00:19:01.592Z,100.0
2022-09-23T00:20:01.162Z,100.0
2022-09-23T00:21:03.339Z,100.0
2022-09-23T00:22:00.899Z,100.0
2022-09-23T00:23:01.593Z,100.0
2022-09-23T00:24:01.360Z,100.0
2022-09-23T00:25:00.919Z,100.0
2022-09-23T00:26:03.784Z,100.0
2022-09-23T00:27:01.270Z,100.0
2022-09-23T00:28:01.232Z,100.0
2022-09-23T00:29:01.276Z,100.0
2022-09-23T00:30:04.001Z,99.7
2022-09-23T00:31:03.108Z,100.0
2022-09-23T00:32:01.464Z,100.0
2022-09-23T00:33:01.380Z,100.0
2022-09-23T00:34:01.080Z,100.0
2022-09-23T00:35:01.448Z,100.0
2022-09-23T00:36:01.646Z,100.0
2022-09-23T00:37:01.201Z,100.0
2022-09-23T00:38:01.108Z,100.0
2022-09-23T00:39:04.195Z,100.0
2022-09-23T00:40:01.879Z,100.0
2022-09-23T00:41:02.411Z,100.0
2022-09-23T00:42:00.945Z,100.0
2022-09-23T00:43:01.979Z,100.0
2022-09-23T00:44:11.438Z,100.0
2022-09-23T00:45:01.468Z,100.0
2022-09-23T00:46:01.660Z,100.0
2022-09-23T00:47:01.554Z,100.0
2022-09-23T00:48:03.099Z,100.0
2022-09-23T00:49:06.368Z,100.0
2022-09-23T00:50:09.261Z,100.0
2022-09-23T00:51:01.439Z,100.0
2022-09-23T00:52:09.180Z,100.0
2022-09-23T00:53:04.689Z,100.0
2022-09-23T00:54:02.590Z,100.0
2022-09-23T00:55:06.375Z,100.0
2022-09-23T00:56:05.134Z,100.0
2022-09-23T00:57:02.171Z,100.0
2022-09-23T00:58:04.453Z,100.0
2022-09-23T00:59:02.608Z,100.0
2022-09-23T01:00:03.551Z,100.0
2022-09-23T01:01:03.004Z,100.0
2022-09-23T01:02:02.332Z,100.0
2022-09-23T01:03:02.388Z,100.0
2022-09-23T01:04:01.487Z,100.0
2022-09-23T01:05:03.222Z,100.0
2022-09-23T01:06:01.403Z,100.0
2022-09-23T01:07:01.156Z,100.0
2022-09-23T01:08:03.735Z,100.0
2022-09-23T01:09:01.322Z,100.0
2022-09-23T01:10:01.852Z,100.0
2022-09-23T01:11:13.098Z,100.0
2022-09-23T01:12:16.456Z,100.0
2022-09-23T01:13:11.357Z,100.0
2022-09-23T01:14:13.775Z,100.0
2022-09-23T01:15:10.457Z,100.0
2022-09-23T01:16:08.784Z,100.0
2022-09-23T01:17:08.857Z,100.0
2022-09-23T01:18:08.735Z,100.0
2022-09-23T01:19:13.430Z,100.0
2022-09-23T01:20:17.947Z,100.0
2022-09-23T01:21:13.680Z,100.0
2022-09-23T01:22:09.186Z,100.0
2022-09-23T01:23:18.206Z,100.0
2022-09-23T01:24:20.686Z,100.0
2022-09-23T01:25:20.708Z,100.0
2022-09-23T01:26:13.991Z,100.0
2022-09-23T01:27:09.794Z,100.0
2022-09-23T01:28:20.185Z,99.2
2022-09-23T01:29:20.656Z,98.3
2022-09-23T01:30:13.364Z,97.4
2022-09-23T01:31:07.126Z,97.2
2022-09-23T01:32:08.627Z,96.3
2022-09-23T01:33:09.022Z,95.6
2022-09-23T01:34:08.159Z,95.8
2022-09-23T01:35:06.944Z,94.7
2022-09-23T01:36:09.414Z,95.4
2022-09-23T01:37:09.738Z,96.4
2022-09-23T01:38:13.761Z,95.3
2022-09-23T01:39:08.909Z,94.6
2022-09-23T01:40:09.324Z,95.6
2022-09-23T01:41:08.222Z,97.1
2022-09-23T01:42:05.642Z,98.9
2022-09-23T01:43:07.434Z,100.0
2022-09-23T01:44:05.505Z,100.0
2022-09-23T01:45:09.061Z,100.0
2022-09-23T01:46:08.682Z,100.0
2022-09-23T01:47:07.580Z,100.0
2022-09-23T01:48:04.154Z,100.0
2022-09-23T01:49:07.423Z,100.0
2022-09-23T01:50:06.351Z,100.0
2022-09-23T01:51:07.266Z,100.0
2022-09-23T01:52:13.724Z,100.0
2022-09-23T01:53:05.428Z,100.0
2022-09-23T01:54:07.596Z,100.0
2022-09-23T01:55:06.667Z,100.0
2022-09-23T01:56:08.770Z,100.0
2022-09-23T01:57:04.551Z,100.0
2022-09-23T01:58:06.873Z,100.0
2022-09-23T01:59:08.137Z,100.0
2022-09-23T02:00:07.842Z,100.0
2022-09-23T02:01:04.338Z,100.0
2022-09-23T02:02:08.562Z,100.0
2022-09-23T02:03:05.988Z,98.7
2022-09-23T02:04:05.623Z,97.5
2022-09-23T02:05:06.974Z,97.9
2022-09-23T02:06:08.010Z,96.0
2022-09-23T02:07:07.263Z,94.0
2022-09-23T02:08:08.244Z,92.8
2022-09-23T02:09:07.251Z,92.9
2022-09-23T02:10:09.481Z,91.9
2022-09-23T02:11:06.165Z,92.8
2022-09-23T02:12:05.317Z,91.4
2022-09-23T02:13:11.147Z,90.5
2022-09-23T02:14:07.360Z,92.0
2022-09-23T02:15:05.350Z,94.5
2022-09-23T02:16:07.462Z,94.8
2022-09-23T02:17:08.209Z,96.8
2022-09-23T02:18:07.547Z,98.9
2022-09-23T02:19:07.086Z,100.0
2022-09-23T02:20:04.829Z,100.0
2022-09-23T02:21:07.333Z,100.0
2022-09-23T02:22:06.533Z,100.0
2022-09-23T02:23:05.957Z,100.0
2022-09-23T02:24:06.531Z,100.0
2022-09-23T02:25:02.142Z,100.0
2022-09-23T02:26:07.972Z,100.0
2022-09-23T02:27:13.477Z,100.0
2022-09-23T02:28:12.000Z,100.0
2022-09-23T02:29:08.651Z,100.0
2022-09-23T02:30:07.064Z,100.0
2022-09-23T02:31:09.320Z,100.0
2022-09-23T02:32:08.844Z,100.0
2022-09-23T02:33:05.218Z,100.0
2022-09-23T02:34:10.186Z,100.0
2022-09-23T02:35:13.889Z,100.0
2022-09-23T02:36:09.483Z,99.8
2022-09-23T02:37:11.578Z,100.0
2022-09-23T02:38:13.123Z,100.0
2022-09-23T02:39:07.981Z,100.0
2022-09-23T02:40:11.252Z,98.7
2022-09-23T02:41:08.307Z,97.8
2022-09-23T02:42:05.884Z,98.3
2022-09-23T02:43:06.535Z,97.4
2022-09-23T02:44:05.386Z,95.8
2022-09-23T02:45:01.312Z,94.1
2022-09-23T02:46:02.836Z,92.1
2022-09-23T02:47:01.574Z,92.2
2022-09-23T02:48:06.914Z,91.4
2022-09-23T02:49:07.343Z,91.6
2022-09-23T02:50:01.332Z,91.1
2022-09-23T02:51:01.456Z,90.4
2022-09-23T02:52:03.653Z,94.1
2022-09-23T02:53:01.396Z,96.7
2022-09-23T02:54:02.625Z,96.6
2022-09-23T02:55:01.129Z,97.1
2022-09-23T02:56:01.452Z,97.7
2022-09-23T02:57:04.910Z,99.7
2022-09-23T02:58:03.436Z,100.0
2022-09-23T02:59:02.202Z,100.0
2022-09-23T03:00:01.241Z,100.0
2022-09-23T03:01:14.710Z,100.0
2022-09-23T03:02:14.541Z,100.0
2022-09-23T03:03:16.982Z,100.0
2022-09-23T03:04:10.930Z,99.0
2022-09-23T03:05:09.968Z,100.0
2022-09-23T03:06:13.217Z,100.0
2022-09-23T03:07:05.125Z,100.0
2022-09-23T03:08:17.148Z,100.0
2022-09-23T03:09:08.232Z,100.0
2022-09-23T03:10:07.123Z,100.0
2022-09-23T03:11:05.961Z,100.0
2022-09-23T03:12:11.657Z,100.0
2022-09-23T03:13:12.202Z,100.0
2022-09-23T03:14:11.613Z,99.6
2022-09-23T03:15:10.865Z,99.9
2022-09-23T03:16:10.061Z,100.0
2022-09-23T03:17:04.384Z,100.0
2022-09-23T03:18:10.505Z,100.0
2022-09-23T03:19:17.486Z,100.0
2022-09-23T03:20:06.902Z,100.0
2022-09-23T03:21:06.751Z,100.0
2022-09-23T03:22:07.569Z,100.0
2022-09-23T03:23:05.043Z,100.0
2022-09-23T03:24:06.991Z,100.0
2022-09-23T03:25:06.851Z,100.0
2022-09-23T03:26:06.474Z,100.0
2022-09-23T03:27:04.683Z,100.0
2022-09-23T03:28:03.042Z,100.0
2022-09-23T03:29:03.180Z,100.0
2022-09-23T03:30:03.484Z,100.0
2022-09-23T03:31:01.955Z,100.0
2022-09-23T03:32:01.351Z,100.0
2022-09-23T03:33:04.080Z,100.0
2022-09-23T03:34:05.329Z,100.0
2022-09-23T03:35:03.797Z,100.0
2022-09-23T03:36:06.288Z,100.0
2022-09-23T03:37:07.155Z,100.0
2022-09-23T03:38:11.421Z,100.0
2022-09-23T03:39:05.230Z,100.0
2022-09-23T03:40:09.057Z,100.0
2022-09-23T03:41:03.306Z,100.0
2022-09-23T03:42:06.608Z,100.0
2022-09-23T03:43:02.041Z,100.0
2022-09-23T03:44:02.268Z,100.0
2022-09-23T03:45:04.479Z,100.0
2022-09-23T03:46:01.627Z,100.0
2022-09-23T03:47:01.140Z,100.0
2022-09-23T03:48:01.211Z,100.0
2022-09-23T03:49:09.899Z,100.0
2022-09-23T03:50:01.506Z,100.0
2022-09-23T03:51:17.959Z,100.0
2022-09-23T03:52:01.191Z,100.0
2022-09-23T03:53:01.265Z,100.0
2022-09-23T03:54:00.933Z,100.0
2022-09-23T03:55:01.210Z,100.0
2022-09-23T03:56:01.271Z,100.0
2022-09-23T03:57:02.250Z,100.0
2022-09-23T03:58:01.397Z,100.0
2022-09-23T03:59:00.904Z,100.0
2022-09-23T04:00:01.260Z,100.0
2022-09-23T04:01:00.965Z,100.0
2022-09-23T04:02:01.261Z,100.0
2022-09-23T04:03:01.229Z,100.0
2022-09-23T04:04:01.529Z,100.0
2022-09-23T04:05:01.282Z,100.0
2022-09-23T04:06:00.915Z,100.0
2022-09-23T04:07:01.889Z,100.0
2022-09-23T04:08:01.213Z,100.0
2022-09-23T04:09:01.530Z,100.0
2022-09-23T04:10:00.932Z,100.0
2022-09-23T04:11:02.039Z,100.0
2022-09-23T04:12:01.508Z,100.0
2022-09-23T04:13:00.916Z,100.0
2022-09-23T04:14:01.273Z,100.0
2022-09-23T04:15:01.202Z,100.0
2022-09-23T04:16:01.238Z,100.0
2022-09-23T04:17:01.198Z,100.0
2022-09-23T04:18:00.918Z,100.0
2022-09-23T04:19:01.211Z,100.0
2022-09-23T04:20:01.517Z,100.0
2022-09-23T04:21:00.942Z,100.0
2022-09-23T04:22:01.349Z,99.6
2022-09-23T04:23:01.195Z,99.5
2022-09-23T04:24:01.295Z,100.0
2022-09-23T04:25:00.980Z,100.0
2022-09-23T04:26:00.940Z,100.0
2022-09-23T04:27:01.528Z,100.0
2022-09-23T04:28:01.425Z,100.0
2022-09-23T04:29:02.160Z,100.0
2022-09-23T04:30:00.916Z,100.0
2022-09-23T04:31:04.282Z,100.0
2022-09-23T04:32:01.635Z,100.0
2022-09-23T04:33:01.210Z,100.0
2022-09-23T04:34:00.994Z,100.0
2022-09-23T04:35:01.193Z,100.0
2022-09-23T04:36:01.321Z,100.0
2022-09-23T04:37:01.232Z,99.3
2022-09-23T04:38:01.196Z,99.9
2022-09-23T04:39:02.146Z,98.9
2022-09-23T04:40:01.305Z,100.0
2022-09-23T04:41:01.202Z,100.0
2022-09-23T04:42:01.428Z,100.0
2022-09-23T04:43:00.967Z,100.0
2022-09-23T04:44:01.811Z,97.7
2022-09-23T04:45:01.213Z,97.1
2022-09-23T04:46:03.307Z,96.0
2022-09-23T04:47:01.316Z,96.4
2022-09-23T04:48:01.483Z,96.4
2022-09-23T04:49:01.225Z,96.6
2022-09-23T04:50:01.037Z,97.2
2022-09-23T04:51:01.950Z,98.0
2022-09-23T04:52:01.260Z,96.7
2022-09-23T04:53:01.207Z,97.6
2022-09-23T04:54:01.446Z,99.6
2022-09-23T04:55:00.916Z,100.0
2022-09-23T04:56:02.273Z,100.0
2022-09-23T04:57:01.208Z,100.0
2022-09-23T04:58:01.215Z,100.0
2022-09-23T04:59:01.425Z,100.0
2022-09-23T05:00:01.137Z,100.0
2022-09-23T05:01:08.698Z,100.0
2022-09-23T05:02:01.374Z,99.9
2022-09-23T05:03:01.629Z,100.0
2022-09-23T05:04:03.812Z,99.1
2022-09-23T05:05:01.205Z,99.6
2022-09-23T05:06:01.223Z,100.0
2022-09-23T05:07:03.217Z,100.0
2022-09-23T05:08:01.193Z,100.0
2022-09-23T05:09:03.444Z,100.0
2022-09-23T05:10:00.972Z,100.0
2022-09-23T05:11:03.240Z,100.0
2022-09-23T05:12:01.183Z,100.0
2022-09-23T05:13:00.934Z,100.0
2022-09-23T05:14:01.948Z,100.0
2022-09-23T05:15:01.395Z,100.0
2022-09-23T05:16:02.895Z,100.0
2022-09-23T05:17:01.293Z,100.0
2022-09-23T05:18:00.909Z,100.0
2022-09-23T05:19:01.235Z,100.0
2022-09-23T05:20:01.172Z,100.0
2022-09-23T05:21:02.063Z,100.0
2022-09-23T05:22:01.192Z,100.0
2022-09-23T05:23:00.919Z,100.0
2022-09-23T05:24:01.175Z,100.0
2022-09-23T05:25:01.261Z,100.0
2022-09-23T05:26:03.222Z,100.0
2022-09-23T05:27:01.195Z,100.0
2022-09-23T05:28:01.421Z,100.0
2022-09-23T05:29:01.226Z,100.0
2022-09-23T05:30:01.245Z,100.0
2022-09-23T05:31:01.935Z,100.0
2022-09-23T05:32:01.368Z,100.0
2022-09-23T05:33:00.919Z,100.0
2022-09-23T05:34:03.889Z,100.0
2022-09-23T05:35:01.199Z,100.0
2022-09-23T05:36:02.965Z,100.0
2022-09-23T05:37:01.140Z,100.0
2022-09-23T05:38:01.216Z,100.0
2022-09-23T05:39:01.223Z,100.0
2022-09-23T05:40:01.240Z,100.0
2022-09-23T05:41:03.914Z,100.0
2022-09-23T05:42:01.384Z,100.0
2022-09-23T05:43:00.930Z,100.0
2022-09-23T05:44:01.550Z,100.0
2022-09-23T05:45:01.586Z,100.0
2022-09-23T05:46:07.156Z,100.0
2022-09-23T05:47:00.981Z,99.7
2022-09-23T05:48:01.461Z,99.8
2022-09-23T05:49:03.266Z,99.7
2022-09-23T05:50:00.950Z,100.0
2022-09-23T05:51:01.171Z,100.0
2022-09-23T05:52:01.126Z,100.0
2022-09-23T05:53:00.917Z,100.0
2022-09-23T05:54:03.439Z,100.0
2022-09-23T05:55:00.911Z,100.0
2022-09-23T05:56:01.199Z,99.9
2022-09-23T05:57:04.278Z,99.5
2022-09-23T05:58:01.206Z,99.0
2022-09-23T05:59:03.213Z,98.7
2022-09-23T06:00:01.218Z,98.9
2022-09-23T06:01:07.832Z,99.3
2022-09-23T06:02:01.370Z,100.0
2022-09-23T06:03:01.261Z,99.5
2022-09-23T06:04:03.069Z,100.0
2022-09-23T06:05:01.219Z,100.0
2022-09-23T06:06:01.206Z,100.0
2022-09-23T06:07:03.591Z,100.0
2022-09-23T06:08:01.049Z,100.0
2022-09-23T06:09:01.779Z,100.0
2022-09-23T06:10:01.071Z,100.0
2022-09-23T06:11:04.397Z,100.0
2022-09-23T06:12:01.593Z,100.0
2022-09-23T06:13:01.219Z,100.0
2022-09-23T06:14:01.197Z,100.0
2022-09-23T06:15:00.993Z,100.0
2022-09-23T06:16:02.448Z,100.0
2022-09-23T06:17:01.227Z,100.0
2022-09-23T06:18:01.252Z,100.0
2022-09-23T06:19:05.388Z,100.0
2022-09-23T06:20:01.120Z,100.0
2022-09-23T06:21:01.735Z,100.0
2022-09-23T06:22:01.234Z,100.0
2022-09-23T06:23:05.424Z,100.0
2022-09-23T06:24:02.279Z,100.0
2022-09-23T06:25:00.905Z,100.0
2022-09-23T06:26:02.979Z,100.0
2022-09-23T06:27:01.195Z,100.0
2022-09-23T06:28:01.752Z,100.0
2022-09-23T06:29:02.452Z,100.0
2022-09-23T06:30:01.198Z,100.0
2022-09-23T06:31:03.428Z,100.0
2022-09-23T06:32:01.843Z,100.0
2022-09-23T06:33:00.900Z,100.0
2022-09-23T06:34:10.859Z,100.0
2022-09-23T06:35:01.188Z,100.0
2022-09-23T06:36:03.219Z,100.0
2022-09-23T06:37:11.135Z,100.0
2022-09-23T06:38:02.949Z,100.0
2022-09-23T06:39:01.488Z,100.0
2022-09-23T06:40:01.283Z,100.0
2022-09-23T06:41:01.641Z,100.0
2022-09-23T06:42:00.918Z,100.0
2022-09-23T06:43:01.896Z,100.0
2022-09-23T06:44:01.241Z,100.0
2022-09-23T06:45:01.311Z,100.0
2022-09-23T06:46:03.460Z,100.0
2022-09-23T06:47:00.944Z,100.0
2022-09-23T06:48:01.218Z,100.0
2022-09-23T06:49:00.903Z,100.0
2022-09-23T06:50:00.918Z,100.0
2022-09-23T06:51:03.406Z,100.0
2022-09-23T06:52:01.123Z,100.0
2022-09-23T06:53:01.391Z,100.0
2022-09-23T06:54:01.665Z,100.0
2022-09-23T06:55:01.587Z,100.0
2022-09-23T06:56:02.936Z,100.0
2022-09-23T06:57:01.205Z,100.0
2022-09-23T06:58:01.354Z,100.0
2022-09-23T06:59:01.238Z,100.0
2022-09-23T07:00:01.656Z,100.0
2022-09-23T07:01:02.000Z,100.0
2022-09-23T07:02:01.218Z,100.0
2022-09-23T07:03:01.428Z,100.0
2022-09-23T07:04:01.331Z,100.0
2022-09-23T07:05:01.256Z,100.0
2022-09-23T07:06:02.286Z,100.0
2022-09-23T07:07:01.215Z,100.0
2022-09-23T07:08:01.224Z,100.0
2022-09-23T07:09:01.289Z,100.0
2022-09-23T07:10:01.260Z,100.0
2022-09-23T07:11:03.638Z,100.0
2022-09-23T07:12:01.183Z,100.0
2022-09-23T07:13:01.608Z,100.0
2022-09-23T07:14:01.363Z,100.0
2022-09-23T07:15:01.386Z,100.0
2022-09-23T07:16:01.973Z,100.0
2022-09-23T07:17:01.221Z,100.0
2022-09-23T07:18:01.196Z,100.0
2022-09-23T07:19:01.223Z,100.0
2022-09-23T07:20:02.281Z,100.0
2022-09-23T07:21:06.173Z,100.0
2022-09-23T07:22:01.210Z,100.0
2022-09-23T07:23:00.896Z,100.0
2022-09-23T07:24:01.088Z,100.0
2022-09-23T07:25:01.219Z,100.0
2022-09-23T07:26:01.214Z,100.0
2022-09-23T07:27:01.447Z,100.0
2022-09-23T07:28:01.189Z,100.0
2022-09-23T07:29:01.947Z,100.0
2022-09-23T07:30:00.890Z,100.0
2022-09-23T07:31:03.882Z,100.0
2022-09-23T07:32:12.407Z,99.4
2022-09-23T07:33:01.557Z,100.0
2022-09-23T07:34:01.626Z,99.9
2022-09-23T07:35:00.895Z,99.3
2022-09-23T07:36:04.837Z,99.9
2022-09-23T07:37:01.442Z,100.0
2022-09-23T07:38:01.194Z,99.5
2022-09-23T07:39:01.199Z,100.0
2022-09-23T07:40:01.236Z,100.0
2022-09-23T07:41:03.573Z,100.0
2022-09-23T07:42:00.942Z,100.0
2022-09-23T07:43:01.191Z,100.0
2022-09-23T07:44:01.288Z,99.5
2022-09-23T07:45:01.361Z,98.8
2022-09-23T07:46:05.009Z,99.1
2022-09-23T07:47:01.243Z,99.7
2022-09-23T07:48:01.973Z,100.0
2022-09-23T07:49:01.632Z,100.0
2022-09-23T07:50:01.439Z,97.7
2022-09-23T07:51:06.552Z,97.2
2022-09-23T07:52:01.546Z,97.8
2022-09-23T07:53:01.203Z,97.8
2022-09-23T07:54:00.947Z,97.6
2022-09-23T07:55:01.221Z,98.2
2022-09-23T07:56:01.045Z,98.6
2022-09-23T07:57:01.354Z,97.9
2022-09-23T07:58:01.289Z,96.2
2022-09-23T07:59:01.315Z,97.5
2022-09-23T08:00:01.988Z,96.7
2022-09-23T08:01:02.272Z,97.6
2022-09-23T08:02:01.267Z,98.2
2022-09-23T08:03:00.992Z,98.6
2022-09-23T08:04:03.697Z,97.8
2022-09-23T08:05:01.228Z,98.6
2022-09-23T08:06:06.222Z,98.5
2022-09-23T08:07:03.680Z,99.2
2022-09-23T08:08:01.135Z,98.7
2022-09-23T08:09:01.013Z,96.2
2022-09-23T08:10:01.737Z,95.2
2022-09-23T08:11:02.277Z,95.2
2022-09-23T08:12:01.282Z,94.5
2022-09-23T08:13:01.197Z,92.6
2022-09-23T08:14:01.207Z,93.9
2022-09-23T08:15:01.246Z,93.6
2022-09-23T08:16:01.667Z,93.3
2022-09-23T08:17:01.221Z,93.3
2022-09-23T08:18:01.288Z,93.4
2022-09-23T08:19:01.617Z,94.7
2022-09-23T08:20:01.279Z,93.9
2022-09-23T08:21:02.200Z,94.0
2022-09-23T08:22:01.319Z,94.4
2022-09-23T08:23:01.284Z,95.1
2022-09-23T08:24:01.323Z,96.2
2022-09-23T08:25:00.973Z,97.9
2022-09-23T08:26:03.519Z,98.9
2022-09-23T08:27:00.939Z,98.3
2022-09-23T08:28:01.241Z,96.6
2022-09-23T08:29:01.285Z,96.5
2022-09-23T08:30:01.349Z,98.6
2022-09-23T08:31:01.273Z,97.7
2022-09-23T08:32:01.701Z,98.7
2022-09-23T08:33:01.384Z,99.4
2022-09-23T08:34:01.209Z,99.6
2022-09-23T08:35:01.189Z,99.5
2022-09-23T08:36:02.307Z,99.2
2022-09-23T08:37:00.932Z,98.9
2022-09-23T08:38:01.207Z,98.3
2022-09-23T08:39:02.137Z,98.3
2022-09-23T08:40:01.225Z,98.1
2022-09-23T08:41:08.577Z,98.1
2022-09-23T08:42:13.788Z,97.5
2022-09-23T08:43:01.416Z,96.8
2022-09-23T08:44:04.209Z,96.5
2022-09-23T08:45:05.244Z,95.9
2022-09-23T08:46:03.852Z,97.0
2022-09-23T08:47:08.622Z,96.6
2022-09-23T08:48:07.504Z,96.7
2022-09-23T08:49:01.688Z,96.3
2022-09-23T08:50:07.912Z,96.0
2022-09-23T08:51:05.548Z,96.6
2022-09-23T08:52:08.822Z,95.4
2022-09-23T08:53:04.487Z,95.0
2022-09-23T08:54:01.519Z,96.4
2022-09-23T08:55:02.535Z,97.2
2022-09-23T08:56:04.958Z,97.4
2022-09-23T08:57:04.526Z,94.9
2022-09-23T08:58:24.464Z,95.2
2022-09-23T08:59:08.579Z,95.2
2022-09-23T09:00:03.516Z,95.7
2022-09-23T09:01:12.262Z,94.5
2022-09-23T09:02:10.695Z,92.6
2022-09-23T09:03:02.907Z,94.1
2022-09-23T09:04:03.171Z,94.4
2022-09-23T09:05:06.025Z,93.7
2022-09-23T09:06:02.327Z,95.4
2022-09-23T09:07:35.121Z,95.9
2022-09-23T09:08:02.960Z,96.8
2022-09-23T09:09:03.728Z,96.0
2022-09-23T09:10:08.280Z,95.9
2022-09-23T09:11:03.921Z,95.9
2022-09-23T09:12:09.013Z,96.3
2022-09-23T09:13:04.921Z,95.8
2022-09-23T09:14:12.530Z,94.5
2022-09-23T09:15:05.175Z,94.6
2022-09-23T09:16:36.340Z,95.2
2022-09-23T09:17:05.695Z,95.0
2022-09-23T09:18:04.808Z,94.4
2022-09-23T09:19:03.169Z,94.7
2022-09-23T09:20:07.676Z,95.0
2022-09-23T09:21:11.222Z,95.0
2022-09-23T09:22:07.027Z,95.4
2022-09-23T09:23:14.780Z,95.0
2022-09-23T09:24:05.718Z,95.2
2022-09-23T09:25:10.503Z,95.8
2022-09-23T09:26:02.267Z,95.7
2022-09-23T09:27:10.840Z,95.5
2022-09-23T09:28:08.079Z,95.1
2022-09-23T09:29:17.236Z,95.4
2022-09-23T09:30:01.517Z,95.7
2022-09-23T09:31:12.260Z,95.2
2022-09-23T09:32:12.211Z,96.0
2022-09-23T09:33:03.111Z,96.0
2022-09-23T09:34:04.991Z,95.7
2022-09-23T09:35:15.758Z,96.1
2022-09-23T09:36:09.536Z,96.1
2022-09-23T09:37:07.058Z,96.6
2022-09-23T09:38:01.038Z,95.0
2022-09-23T09:39:01.275Z,94.4
2022-09-23T09:40:01.912Z,94.5
2022-09-23T09:41:11.181Z,95.2
2022-09-23T09:42:02.661Z,93.7
2022-09-23T09:43:01.820Z,94.7
2022-09-23T09:44:09.213Z,95.1
2022-09-23T09:45:06.060Z,95.7
2022-09-23T09:46:15.555Z,96.9
2022-09-23T09:47:17.079Z,97.4
2022-09-23T09:48:09.260Z,95.9
2022-09-23T09:49:06.890Z,96.8
2022-09-23T09:50:05.702Z,97.1
2022-09-23T09:51:18.906Z,95.9
2022-09-23T09:52:12.725Z,95.0
2022-09-23T09:53:14.419Z,93.4
2022-09-23T09:54:20.343Z,94.0
2022-09-23T09:55:16.956Z,94.3
2022-09-23T09:56:05.348Z,93.5
2022-09-23T09:57:04.130Z,94.3
2022-09-23T09:58:03.618Z,93.9
2022-09-23T09:59:09.748Z,94.5
2022-09-23T10:00:20.772Z,93.8
2022-09-23T10:01:01.342Z,93.7
2022-09-23T10:02:12.872Z,94.5
2022-09-23T10:03:04.556Z,95.5
2022-09-23T10:04:04.491Z,96.0
2022-09-23T10:05:04.639Z,95.8
2022-09-23T10:06:13.437Z,96.0
2022-09-23T10:07:07.078Z,96.3
2022-09-23T10:08:19.908Z,95.0
2022-09-23T10:09:07.983Z,94.4
2022-09-23T10:10:31.946Z,94.0
2022-09-23T10:11:03.556Z,93.8
2022-09-23T10:12:11.290Z,93.9
2022-09-23T10:13:14.005Z,94.2
2022-09-23T10:14:04.138Z,94.1
2022-09-23T10:15:00.859Z,93.6
2022-09-23T10:16:02.085Z,93.4
2022-09-23T10:17:03.878Z,91.8
2022-09-23T10:18:00.954Z,93.2
2022-09-23T10:19:02.841Z,93.9
2022-09-23T10:20:07.735Z,94.0
2022-09-23T10:21:06.134Z,94.8
2022-09-23T10:22:03.740Z,94.7
2022-09-23T10:23:06.270Z,94.5
2022-09-23T10:24:04.613Z,94.7
2022-09-23T10:25:06.650Z,94.2
2022-09-23T10:26:04.582Z,94.9
2022-09-23T10:27:04.333Z,95.4
2022-09-23T10:28:20.347Z,95.8
2022-09-23T10:29:03.787Z,94.5
2022-09-23T10:30:03.582Z,93.8
2022-09-23T10:31:05.288Z,93.6
2022-09-23T10:32:18.631Z,94.1
2022-09-23T10:33:01.183Z,93.7
2022-09-23T10:34:03.247Z,93.3
2022-09-23T10:35:11.084Z,93.5
2022-09-23T10:36:01.303Z,93.4
2022-09-23T10:37:06.830Z,93.6
2022-09-23T10:38:01.239Z,92.7
2022-09-23T10:39:02.971Z,93.1
2022-09-23T10:40:14.226Z,92.4
2022-09-23T10:41:02.055Z,91.0
2022-09-23T10:42:09.250Z,91.0
2022-09-23T10:43:17.907Z,91.4
2022-09-23T10:44:14.334Z,91.8
2022-09-23T10:45:08.477Z,91.8
2022-09-23T10:46:04.525Z,92.4
2022-09-23T10:47:09.073Z,92.5
2022-09-23T10:48:13.042Z,93.1
2022-09-23T10:49:18.590Z,92.9
2022-09-23T10:50:13.658Z,93.9
2022-09-23T10:51:08.371Z,93.8
2022-09-23T10:52:17.451Z,93.7
2022-09-23T10:53:09.520Z,93.2
2022-09-23T10:54:11.331Z,93.8
2022-09-23T10:55:12.704Z,92.6
2022-09-23T10:56:18.173Z,93.1
2022-09-23T10:57:13.328Z,90.9
2022-09-23T10:58:20.348Z,90.8
2022-09-23T10:59:17.009Z,92.8
2022-09-23T11:00:03.771Z,92.5
2022-09-23T11:01:17.280Z,92.9
2022-09-23T11:02:19.171Z,92.0
2022-09-23T11:03:20.351Z,91.3
2022-09-23T11:04:18.718Z,91.3
2022-09-23T11:05:17.853Z,91.7
2022-09-23T11:06:11.435Z,89.8
2022-09-23T11:07:10.187Z,90.1
2022-09-23T11:08:17.601Z,90.5
2022-09-23T11:09:10.650Z,90.8
2022-09-23T11:10:35.205Z,91.2
2022-09-23T11:11:15.101Z,92.2
2022-09-23T11:12:15.511Z,91.8
2022-09-23T11:13:08.340Z,92.2
2022-09-23T11:14:15.048Z,91.4
2022-09-23T11:15:11.744Z,92.2
2022-09-23T11:16:09.620Z,91.6
2022-09-23T11:17:13.998Z,91.0
2022-09-23T11:18:16.745Z,91.5
2022-09-23T11:19:11.672Z,90.2
2022-09-23T11:20:20.368Z,89.8
2022-09-23T11:21:15.071Z,90.7
2022-09-23T11:22:14.946Z,90.6
2022-09-23T11:23:20.392Z,90.5
2022-09-23T11:24:18.711Z,88.3
2022-09-23T11:25:18.348Z,88.2
2022-09-23T11:26:11.843Z,88.6
2022-09-23T11:27:14.463Z,87.3
2022-09-23T11:28:19.451Z,87.9
2022-09-23T11:29:18.515Z,88.8
2022-09-23T11:30:07.157Z,89.0
2022-09-23T11:31:14.256Z,86.6
2022-09-23T11:32:19.269Z,88.5
2022-09-23T11:33:17.971Z,88.5
2022-09-23T11:34:17.015Z,88.8
2022-09-23T11:35:12.759Z,88.0
2022-09-23T11:36:06.452Z,88.6
2022-09-23T11:37:07.559Z,87.7
2022-09-23T11:38:06.740Z,86.9
2022-09-23T11:39:11.627Z,86.9
2022-09-23T11:40:06.527Z,87.0
2022-09-23T11:41:11.407Z,87.3
2022-09-23T11:42:05.415Z,86.9
2022-09-23T11:43:05.228Z,86.0
2022-09-23T11:44:06.830Z,85.9
2022-09-23T11:45:07.797Z,85.7
2022-09-23T11:46:07.076Z,85.2
2022-09-23T11:47:05.996Z,84.8
2022-09-23T11:48:07.574Z,81.3
2022-09-23T11:49:08.988Z,83.0
2022-09-23T11:50:04.905Z,82.4
2022-09-23T11:51:05.829Z,83.1
2022-09-23T11:52:06.190Z,83.5
2022-09-23T11:53:06.774Z,83.7
2022-09-23T11:54:05.226Z,84.0
2022-09-23T11:55:17.815Z,83.5
2022-09-23T11:56:05.565Z,84.4
2022-09-23T11:57:04.801Z,84.7
2022-09-23T11:58:20.835Z,83.8
2022-09-23T11:59:09.790Z,82.9
2022-09-23T12:00:05.807Z,84.3
2022-09-23T12:01:08.974Z,83.6
2022-09-23T12:02:18.540Z,83.7
2022-09-23T12:03:12.310Z,82.5
2022-09-23T12:04:17.657Z,84.2
2022-09-23T12:05:07.460Z,85.8
2022-09-23T12:06:05.856Z,85.9
2022-09-23T12:07:10.537Z,84.9
2022-09-23T12:08:09.499Z,85.0
2022-09-23T12:09:11.769Z,82.7
2022-09-23T12:10:04.650Z,83.1
2022-09-23T12:11:07.676Z,83.9
2022-09-23T12:12:13.128Z,84.7
2022-09-23T12:13:07.097Z,84.9
2022-09-23T12:14:12.641Z,84.3
2022-09-23T12:15:06.091Z,82.8
2022-09-23T12:16:20.416Z,84.5
2022-09-23T12:17:15.035Z,84.3
2022-09-23T12:18:22.842Z,83.2
2022-09-23T12:19:13.692Z,82.7
2022-09-23T12:20:17.394Z,83.7
2022-09-23T12:21:27.179Z,84.9
2022-09-23T12:22:17.499Z,83.7
2022-09-23T12:23:14.696Z,85.3
2022-09-23T12:24:20.397Z,82.0
2022-09-23T12:25:19.215Z,82.8
2022-09-23T12:26:04.745Z,82.1
2022-09-23T12:27:06.077Z,82.1
2022-09-23T12:28:05.517Z,81.6
2022-09-23T12:29:04.473Z,81.7
2022-09-23T12:30:04.691Z,82.2
2022-09-23T12:31:04.691Z,82.1
2022-09-23T12:32:01.694Z,82.7
2022-09-23T12:33:17.905Z,80.4
2022-09-23T12:34:20.167Z,79.7
2022-09-23T12:35:01.272Z,80.3
2022-09-23T12:36:03.532Z,81.7
2022-09-23T12:37:02.785Z,81.7
2022-09-23T12:38:01.748Z,79.9
2022-09-23T12:39:05.779Z,81.0
2022-09-23T12:40:07.375Z,80.5
2022-09-23T12:41:11.553Z,79.3
2022-09-23T12:42:04.073Z,78.7
2022-09-23T12:43:02.064Z,79.1
2022-09-23T12:44:20.370Z,78.4
2022-09-23T12:45:20.400Z,78.7
2022-09-23T12:46:19.267Z,80.3
2022-09-23T12:47:20.370Z,78.8
2022-09-23T12:48:02.784Z,79.5
2022-09-23T12:49:04.109Z,77.8
2022-09-23T12:50:01.317Z,77.4
2022-09-23T12:51:15.302Z,77.8
2022-09-23T12:52:12.085Z,78.5
2022-09-23T12:53:20.376Z,77.4
2022-09-23T12:54:14.863Z,79.0
2022-09-23T12:55:20.375Z,79.8
2022-09-23T12:56:12.010Z,79.9
2022-09-23T12:57:04.098Z,79.9
2022-09-23T12:58:01.185Z,80.0
2022-09-23T12:59:09.821Z,80.8
2022-09-23T13:00:20.373Z,81.5
2022-09-23T13:01:06.788Z,79.8
2022-09-23T13:02:20.523Z,82.2
2022-09-23T13:03:01.657Z,81.8
2022-09-23T13:04:01.301Z,80.8
2022-09-23T13:05:19.984Z,81.1
2022-09-23T13:06:01.273Z,80.6